Terminal Aerodrome Forecast
Issued by NWS

Home | Current Version | Previous Version | Text Only | Print | Product List | Glossary On
Versions: 1 2 3 4 5 6 7 8 9 10 11 12 13 14 15 16 17 18 19 20 21
795
FTUS43 KIND 261314 AAA
TAFHUF
TAF AMD
KHUF 261314Z 2613/2712 08007KT P6SM SCT013 BKN250
     FM261500 11005KT P6SM SCT045 BKN200
     FM270000 07004KT P6SM BKN060 BKN100
     FM270600 08003KT 4SM BR VCSH OVC035=

USA.gov is the U.S. government's official web portal to all federal, state and local government web resources and services.